sensor_id;sensor_type;location;lat;lon;timestamp;P1;durP1;ratioP1;P2;durP2;ratioP2
15708;SDS011;7954;51.914;8.420;2023-04-01T00:00:48;1.83;;;1.00;;
15708;SDS011;7954;51.914;8.420;2023-04-01T00:03:20;1.83;;;0.90;;
15708;SDS011;7954;51.914;8.420;2023-04-01T00:05:49;1.03;;;0.93;;
15708;SDS011;7954;51.914;8.420;2023-04-01T00:08:18;1.40;;;0.80;;
15708;SDS011;7954;51.914;8.420;2023-04-01T00:10:46;0.70;;;0.70;;
15708;SDS011;7954;51.914;8.420;2023-04-01T00:13:14;1.30;;;0.90;;
15708;SDS011;7954;51.914;8.420;2023-04-01T00:15:42;1.30;;;1.00;;
15708;SDS011;7954;51.914;8.420;2023-04-01T00:18:11;1.50;;;0.93;;
15708;SDS011;7954;51.914;8.420;2023-04-01T00:20:44;0.97;;;0.90;;
15708;SDS011;7954;51.914;8.420;2023-04-01T00:23:12;4.23;;;0.90;;
15708;SDS011;7954;51.914;8.420;2023-04-01T00:25:41;1.10;;;1.00;;
15708;SDS011;7954;51.914;8.420;2023-04-01T00:28:09;0.83;;;0.70;;
15708;SDS011;7954;51.914;8.420;2023-04-01T00:30:37;0.60;;;0.60;;
15708;SDS011;7954;51.914;8.420;2023-04-01T00:33:05;1.00;;;0.87;;
15708;SDS011;7954;51.914;8.420;2023-04-01T00:35:33;0.83;;;0.80;;
15708;SDS011;7954;51.914;8.420;2023-04-01T00:38:04;0.80;;;0.80;;
15708;SDS011;7954;51.914;8.420;2023-04-01T00:40:33;1.37;;;0.80;;
15708;SDS011;7954;51.914;8.420;2023-04-01T00:43:08;1.80;;;0.93;;
15708;SDS011;7954;51.914;8.420;2023-04-01T00:45:41;1.00;;;0.83;;
15708;SDS011;7954;51.914;8.420;2023-04-01T00:48:11;1.20;;;0.90;;
15708;SDS011;7954;51.914;8.420;2023-04-01T00:50:45;0.83;;;0.60;;
15708;SDS011;7954;51.914;8.420;2023-04-01T00:53:17;1.03;;;0.80;;
15708;SDS011;7954;51.914;8.420;2023-04-01T00:55:49;1.60;;;0.90;;
15708;SDS011;7954;51.914;8.420;2023-04-01T00:58:21;2.97;;;1.17;;
15708;SDS011;7954;51.914;8.420;2023-04-01T01:00:51;1.47;;;0.80;;
15708;SDS011;7954;51.914;8.420;2023-04-01T01:03:19;0.77;;;0.77;;
15708;SDS011;7954;51.914;8.420;2023-04-01T01:05:55;0.70;;;0.70;;
15708;SDS011;7954;51.914;8.420;2023-04-01T01:08:39;2.30;;;1.00;;
15708;SDS011;7954;51.914;8.420;2023-04-01T01:11:16;0.70;;;0.63;;
15708;SDS011;7954;51.914;8.420;2023-04-01T01:13:52;1.07;;;0.70;;
15708;SDS011;7954;51.914;8.420;2023-04-01T01:16:28;0.77;;;0.67;;
15708;SDS011;7954;51.914;8.420;2023-04-01T01:19:01;1.77;;;0.93;;
15708;SDS011;7954;51.914;8.420;2023-04-01T01:21:55;1.50;;;1.00;;
15708;SDS011;7954;51.914;8.420;2023-04-01T01:24:42;1.67;;;0.83;;
15708;SDS011;7954;51.914;8.420;2023-04-01T01:27:18;1.13;;;0.83;;
15708;SDS011;7954;51.914;8.420;2023-04-01T01:29:54;0.70;;;0.60;;
15708;SDS011;7954;51.914;8.420;2023-04-01T01:32:51;1.57;;;0.83;;
15708;SDS011;7954;51.914;8.420;2023-04-01T01:35:30;1.00;;;0.67;;
15708;SDS011;7954;51.914;8.420;2023-04-01T01:38:02;1.40;;;0.93;;
15708;SDS011;7954;51.914;8.420;2023-04-01T01:42:48;2.47;;;0.80;;
15708;SDS011;7954;51.914;8.420;2023-04-01T01:45:20;0.93;;;0.70;;
15708;SDS011;7954;51.914;8.420;2023-04-01T01:47:51;0.90;;;0.70;;
15708;SDS011;7954;51.914;8.420;2023-04-01T01:50:19;2.07;;;0.90;;
15708;SDS011;7954;51.914;8.420;2023-04-01T01:52:49;1.50;;;0.70;;
15708;SDS011;7954;51.914;8.420;2023-04-01T01:55:25;0.80;;;0.60;;
15708;SDS011;7954;51.914;8.420;2023-04-01T01:57:59;1.30;;;1.00;;
15708;SDS011;7954;51.914;8.420;2023-04-01T02:00:32;0.80;;;0.60;;
15708;SDS011;7954;51.914;8.420;2023-04-01T02:03:01;0.67;;;0.60;;
15708;SDS011;7954;51.914;8.420;2023-04-01T02:05:29;0.83;;;0.70;;
15708;SDS011;7954;51.914;8.420;2023-04-01T02:08:00;0.67;;;0.67;;
15708;SDS011;7954;51.914;8.420;2023-04-01T02:10:31;0.67;;;0.50;;
15708;SDS011;7954;51.914;8.420;2023-04-01T02:13:07;1.17;;;0.70;;
15708;SDS011;7954;51.914;8.420;2023-04-01T02:15:42;1.63;;;0.70;;
15708;SDS011;7954;51.914;8.420;2023-04-01T02:18:15;1.53;;;0.73;;
15708;SDS011;7954;51.914;8.420;2023-04-01T02:20:43;1.40;;;0.70;;
15708;SDS011;7954;51.914;8.420;2023-04-01T02:23:12;0.90;;;0.70;;
15708;SDS011;7954;51.914;8.420;2023-04-01T02:25:40;0.70;;;0.60;;
15708;SDS011;7954;51.914;8.420;2023-04-01T02:28:11;0.97;;;0.97;;
15708;SDS011;7954;51.914;8.420;2023-04-01T02:30:42;0.50;;;0.50;;
15708;SDS011;7954;51.914;8.420;2023-04-01T02:33:11;1.17;;;0.80;;
15708;SDS011;7954;51.914;8.420;2023-04-01T02:35:39;0.83;;;0.60;;
15708;SDS011;7954;51.914;8.420;2023-04-01T02:38:08;1.13;;;0.83;;
15708;SDS011;7954;51.914;8.420;2023-04-01T02:40:43;0.50;;;0.50;;
15708;SDS011;7954;51.914;8.420;2023-04-01T02:43:14;1.03;;;0.63;;
15708;SDS011;7954;51.914;8.420;2023-04-01T02:45:42;0.40;;;0.40;;
15708;SDS011;7954;51.914;8.420;2023-04-01T02:48:10;0.70;;;0.47;;
15708;SDS011;7954;51.914;8.420;2023-04-01T02:50:39;0.97;;;0.90;;
15708;SDS011;7954;51.914;8.420;2023-04-01T02:53:06;0.60;;;0.60;;
15708;SDS011;7954;51.914;8.420;2023-04-01T02:55:34;0.40;;;0.40;;
15708;SDS011;7954;51.914;8.420;2023-04-01T02:58:03;0.57;;;0.57;;
15708;SDS011;7954;51.914;8.420;2023-04-01T03:00:32;0.50;;;0.50;;
15708;SDS011;7954;51.914;8.420;2023-04-01T03:03:00;0.80;;;0.77;;
15708;SDS011;7954;51.914;8.420;2023-04-01T03:05:29;0.70;;;0.60;;
15708;SDS011;7954;51.914;8.420;2023-04-01T03:07:57;0.70;;;0.60;;
15708;SDS011;7954;51.914;8.420;2023-04-01T03:10:25;1.03;;;0.90;;
15708;SDS011;7954;51.914;8.420;2023-04-01T03:12:53;0.97;;;0.60;;
15708;SDS011;7954;51.914;8.420;2023-04-01T03:15:21;0.40;;;0.40;;
15708;SDS011;7954;51.914;8.420;2023-04-01T03:17:51;0.50;;;0.50;;
15708;SDS011;7954;51.914;8.420;2023-04-01T03:20:19;0.60;;;0.60;;
15708;SDS011;7954;51.914;8.420;2023-04-01T03:22:47;0.60;;;0.60;;
15708;SDS011;7954;51.914;8.420;2023-04-01T03:25:15;0.50;;;0.50;;
15708;SDS011;7954;51.914;8.420;2023-04-01T03:27:43;0.50;;;0.50;;
15708;SDS011;7954;51.914;8.420;2023-04-01T03:30:11;0.57;;;0.50;;
15708;SDS011;7954;51.914;8.420;2023-04-01T03:32:39;0.70;;;0.70;;
15708;SDS011;7954;51.914;8.420;2023-04-01T03:35:08;0.53;;;0.53;;
15708;SDS011;7954;51.914;8.420;2023-04-01T03:37:37;0.60;;;0.60;;
15708;SDS011;7954;51.914;8.420;2023-04-01T03:40:06;0.67;;;0.67;;
15708;SDS011;7954;51.914;8.420;2023-04-01T03:42:34;0.63;;;0.63;;
15708;SDS011;7954;51.914;8.420;2023-04-01T03:45:03;0.60;;;0.50;;
15708;SDS011;7954;51.914;8.420;2023-04-01T03:47:32;0.60;;;0.57;;
15708;SDS011;7954;51.914;8.420;2023-04-01T03:50:00;0.60;;;0.60;;
15708;SDS011;7954;51.914;8.420;2023-04-01T03:52:30;1.87;;;0.77;;
15708;SDS011;7954;51.914;8.420;2023-04-01T03:54:59;0.60;;;0.60;;
15708;SDS011;7954;51.914;8.420;2023-04-01T03:57:27;0.60;;;0.57;;
15708;SDS011;7954;51.914;8.420;2023-04-01T03:59:57;0.60;;;0.60;;
15708;SDS011;7954;51.914;8.420;2023-04-01T04:02:26;0.83;;;0.70;;
15708;SDS011;7954;51.914;8.420;2023-04-01T04:04:53;0.40;;;0.40;;
15708;SDS011;7954;51.914;8.420;2023-04-01T04:07:21;0.90;;;0.60;;
15708;SDS011;7954;51.914;8.420;2023-04-01T04:09:52;0.60;;;0.60;;
15708;SDS011;7954;51.914;8.420;2023-04-01T04:12:22;0.50;;;0.50;;
15708;SDS011;7954;51.914;8.420;2023-04-01T04:14:49;0.47;;;0.47;;
15708;SDS011;7954;51.914;8.420;2023-04-01T04:17:17;0.50;;;0.50;;
15708;SDS011;7954;51.914;8.420;2023-04-01T04:19:45;0.53;;;0.53;;
15708;SDS011;7954;51.914;8.420;2023-04-01T04:22:13;0.60;;;0.60;;
15708;SDS011;7954;51.914;8.420;2023-04-01T04:24:41;0.40;;;0.40;;
15708;SDS011;7954;51.914;8.420;2023-04-01T04:27:10;0.97;;;0.87;;
15708;SDS011;7954;51.914;8.420;2023-04-01T04:29:38;0.80;;;0.80;;
15708;SDS011;7954;51.914;8.420;2023-04-01T04:32:06;1.23;;;0.60;;
15708;SDS011;7954;51.914;8.420;2023-04-01T04:34:34;1.10;;;0.80;;
15708;SDS011;7954;51.914;8.420;2023-04-01T04:37:02;0.50;;;0.50;;
15708;SDS011;7954;51.914;8.420;2023-04-01T04:39:30;0.60;;;0.60;;
15708;SDS011;7954;51.914;8.420;2023-04-01T04:41:58;0.60;;;0.60;;
15708;SDS011;7954;51.914;8.420;2023-04-01T04:44:27;1.70;;;0.70;;
15708;SDS011;7954;51.914;8.420;2023-04-01T04:46:55;1.70;;;0.60;;
15708;SDS011;7954;51.914;8.420;2023-04-01T04:49:24;0.73;;;0.53;;
15708;SDS011;7954;51.914;8.420;2023-04-01T04:51:52;0.90;;;0.53;;
15708;SDS011;7954;51.914;8.420;2023-04-01T04:54:20;0.93;;;0.57;;
15708;SDS011;7954;51.914;8.420;2023-04-01T04:56:50;0.60;;;0.60;;
15708;SDS011;7954;51.914;8.420;2023-04-01T04:59:19;0.50;;;0.50;;
15708;SDS011;7954;51.914;8.420;2023-04-01T05:01:48;0.40;;;0.40;;
15708;SDS011;7954;51.914;8.420;2023-04-01T05:04:16;0.80;;;0.50;;
15708;SDS011;7954;51.914;8.420;2023-04-01T05:06:44;1.20;;;0.60;;
15708;SDS011;7954;51.914;8.420;2023-04-01T05:09:12;1.13;;;0.60;;
15708;SDS011;7954;51.914;8.420;2023-04-01T05:11:40;0.50;;;0.50;;
15708;SDS011;7954;51.914;8.420;2023-04-01T05:14:11;0.53;;;0.50;;
15708;SDS011;7954;51.914;8.420;2023-04-01T05:16:40;0.70;;;0.70;;
15708;SDS011;7954;51.914;8.420;2023-04-01T05:19:09;0.50;;;0.50;;
15708;SDS011;7954;51.914;8.420;2023-04-01T05:21:37;0.50;;;0.50;;
15708;SDS011;7954;51.914;8.420;2023-04-01T05:24:07;0.73;;;0.70;;
15708;SDS011;7954;51.914;8.420;2023-04-01T05:26:35;0.40;;;0.40;;
15708;SDS011;7954;51.914;8.420;2023-04-01T05:29:04;0.40;;;0.40;;
15708;SDS011;7954;51.914;8.420;2023-04-01T05:31:34;0.50;;;0.50;;
15708;SDS011;7954;51.914;8.420;2023-04-01T05:34:04;0.47;;;0.47;;
15708;SDS011;7954;51.914;8.420;2023-04-01T05:36:33;0.83;;;0.60;;
15708;SDS011;7954;51.914;8.420;2023-04-01T05:39:02;0.50;;;0.50;;
15708;SDS011;7954;51.914;8.420;2023-04-01T05:41:31;0.50;;;0.50;;
15708;SDS011;7954;51.914;8.420;2023-04-01T05:44:00;0.60;;;0.50;;
15708;SDS011;7954;51.914;8.420;2023-04-01T05:46:28;0.83;;;0.73;;
15708;SDS011;7954;51.914;8.420;2023-04-01T05:48:56;0.50;;;0.50;;
15708;SDS011;7954;51.914;8.420;2023-04-01T05:51:24;0.50;;;0.50;;
15708;SDS011;7954;51.914;8.420;2023-04-01T05:53:54;0.53;;;0.53;;
15708;SDS011;7954;51.914;8.420;2023-04-01T05:56:21;0.60;;;0.60;;
15708;SDS011;7954;51.914;8.420;2023-04-01T05:58:50;0.50;;;0.50;;
15708;SDS011;7954;51.914;8.420;2023-04-01T06:01:19;0.83;;;0.70;;
15708;SDS011;7954;51.914;8.420;2023-04-01T06:03:47;2.03;;;0.50;;
15708;SDS011;7954;51.914;8.420;2023-04-01T06:06:16;1.60;;;0.50;;
15708;SDS011;7954;51.914;8.420;2023-04-01T06:08:51;1.43;;;0.60;;
15708;SDS011;7954;51.914;8.420;2023-04-01T06:11:25;0.50;;;0.50;;
15708;SDS011;7954;51.914;8.420;2023-04-01T06:14:07;0.50;;;0.50;;
15708;SDS011;7954;51.914;8.420;2023-04-01T06:16:44;0.50;;;0.50;;
15708;SDS011;7954;51.914;8.420;2023-04-01T06:19:24;0.53;;;0.53;;
15708;SDS011;7954;51.914;8.420;2023-04-01T06:25:21;0.70;;;0.70;;
15708;SDS011;7954;51.914;8.420;2023-04-01T06:30:51;0.60;;;0.60;;
15708;SDS011;7954;51.914;8.420;2023-04-01T06:33:34;1.00;;;0.80;;
15708;SDS011;7954;51.914;8.420;2023-04-01T06:36:18;0.83;;;0.40;;
15708;SDS011;7954;51.914;8.420;2023-04-01T06:39:08;0.60;;;0.60;;
15708;SDS011;7954;51.914;8.420;2023-04-01T06:44:46;0.73;;;0.60;;
15708;SDS011;7954;51.914;8.420;2023-04-01T06:50:19;0.40;;;0.40;;
15708;SDS011;7954;51.914;8.420;2023-04-01T06:52:54;0.40;;;0.40;;
15708;SDS011;7954;51.914;8.420;2023-04-01T06:55:32;0.50;;;0.50;;
15708;SDS011;7954;51.914;8.420;2023-04-01T06:58:04;0.90;;;0.70;;
15708;SDS011;7954;51.914;8.420;2023-04-01T07:00:37;0.63;;;0.63;;
15708;SDS011;7954;51.914;8.420;2023-04-01T07:03:13;0.50;;;0.50;;
15708;SDS011;7954;51.914;8.420;2023-04-01T07:05:48;0.77;;;0.63;;
15708;SDS011;7954;51.914;8.420;2023-04-01T07:08:17;1.00;;;0.60;;
15708;SDS011;7954;51.914;8.420;2023-04-01T07:10:50;0.90;;;0.67;;
15708;SDS011;7954;51.914;8.420;2023-04-01T07:13:24;0.70;;;0.70;;
15708;SDS011;7954;51.914;8.420;2023-04-01T07:15:57;0.77;;;0.67;;
15708;SDS011;7954;51.914;8.420;2023-04-01T07:18:34;0.77;;;0.70;;
15708;SDS011;7954;51.914;8.420;2023-04-01T07:21:10;1.00;;;0.70;;
15708;SDS011;7954;51.914;8.420;2023-04-01T07:23:49;0.70;;;0.70;;
15708;SDS011;7954;51.914;8.420;2023-04-01T07:26:21;0.73;;;0.73;;
15708;SDS011;7954;51.914;8.420;2023-04-01T07:28:51;1.93;;;0.63;;
15708;SDS011;7954;51.914;8.420;2023-04-01T07:31:23;0.93;;;0.77;;
15708;SDS011;7954;51.914;8.420;2023-04-01T07:34:04;0.60;;;0.60;;
15708;SDS011;7954;51.914;8.420;2023-04-01T07:36:42;0.50;;;0.50;;
15708;SDS011;7954;51.914;8.420;2023-04-01T07:39:17;1.50;;;0.70;;
15708;SDS011;7954;51.914;8.420;2023-04-01T07:41:56;0.67;;;0.67;;
15708;SDS011;7954;51.914;8.420;2023-04-01T07:44:32;0.60;;;0.60;;
15708;SDS011;7954;51.914;8.420;2023-04-01T07:47:13;7.17;;;1.13;;
15708;SDS011;7954;51.914;8.420;2023-04-01T07:49:52;1.37;;;0.70;;
15708;SDS011;7954;51.914;8.420;2023-04-01T07:52:31;1.20;;;1.10;;
15708;SDS011;7954;51.914;8.420;2023-04-01T07:55:05;1.23;;;0.70;;
15708;SDS011;7954;51.914;8.420;2023-04-01T07:57:43;0.60;;;0.60;;
15708;SDS011;7954;51.914;8.420;2023-04-01T08:00:20;0.70;;;0.70;;
15708;SDS011;7954;51.914;8.420;2023-04-01T08:02:54;0.70;;;0.70;;
15708;SDS011;7954;51.914;8.420;2023-04-01T08:05:47;1.57;;;0.80;;
15708;SDS011;7954;51.914;8.420;2023-04-01T08:08:26;1.20;;;0.90;;
15708;SDS011;7954;51.914;8.420;2023-04-01T08:11:04;1.03;;;0.83;;
15708;SDS011;7954;51.914;8.420;2023-04-01T08:13:40;1.53;;;1.00;;
15708;SDS011;7954;51.914;8.420;2023-04-01T08:16:17;0.80;;;0.73;;
15708;SDS011;7954;51.914;8.420;2023-04-01T08:18:53;0.80;;;0.80;;
15708;SDS011;7954;51.914;8.420;2023-04-01T08:21:34;1.33;;;0.63;;
15708;SDS011;7954;51.914;8.420;2023-04-01T08:24:07;0.80;;;0.70;;
15708;SDS011;7954;51.914;8.420;2023-04-01T08:26:47;1.00;;;0.70;;
15708;SDS011;7954;51.914;8.420;2023-04-01T08:29:19;0.60;;;0.60;;
15708;SDS011;7954;51.914;8.420;2023-04-01T08:31:51;0.70;;;0.70;;
15708;SDS011;7954;51.914;8.420;2023-04-01T08:34:24;1.00;;;0.90;;
15708;SDS011;7954;51.914;8.420;2023-04-01T08:36:57;2.00;;;0.70;;
15708;SDS011;7954;51.914;8.420;2023-04-01T08:39:29;0.60;;;0.60;;
15708;SDS011;7954;51.914;8.420;2023-04-01T08:42:10;0.60;;;0.60;;
15708;SDS011;7954;51.914;8.420;2023-04-01T08:44:53;0.70;;;0.70;;
15708;SDS011;7954;51.914;8.420;2023-04-01T08:47:46;0.70;;;0.70;;
15708;SDS011;7954;51.914;8.420;2023-04-01T08:50:38;0.50;;;0.50;;
15708;SDS011;7954;51.914;8.420;2023-04-01T08:53:19;0.60;;;0.60;;
15708;SDS011;7954;51.914;8.420;2023-04-01T08:56:01;0.77;;;0.77;;
15708;SDS011;7954;51.914;8.420;2023-04-01T08:58:52;0.70;;;0.70;;
15708;SDS011;7954;51.914;8.420;2023-04-01T09:01:36;1.40;;;0.70;;
15708;SDS011;7954;51.914;8.420;2023-04-01T09:04:22;1.60;;;0.60;;
15708;SDS011;7954;51.914;8.420;2023-04-01T09:07:03;0.70;;;0.70;;
15708;SDS011;7954;51.914;8.420;2023-04-01T09:09:43;0.77;;;0.77;;
15708;SDS011;7954;51.914;8.420;2023-04-01T09:15:36;0.53;;;0.53;;
15708;SDS011;7954;51.914;8.420;2023-04-01T09:18:28;0.93;;;0.70;;
15708;SDS011;7954;51.914;8.420;2023-04-01T09:21:18;0.80;;;0.80;;
15708;SDS011;7954;51.914;8.420;2023-04-01T09:27:05;0.80;;;0.80;;
15708;SDS011;7954;51.914;8.420;2023-04-01T09:29:44;2.50;;;1.10;;
15708;SDS011;7954;51.914;8.420;2023-04-01T09:32:36;0.80;;;0.80;;
15708;SDS011;7954;51.914;8.420;2023-04-01T09:35:22;0.67;;;0.67;;
15708;SDS011;7954;51.914;8.420;2023-04-01T09:37:53;1.03;;;0.70;;
15708;SDS011;7954;51.914;8.420;2023-04-01T09:40:36;0.70;;;0.70;;
15708;SDS011;7954;51.914;8.420;2023-04-01T09:43:39;0.93;;;0.60;;
15708;SDS011;7954;51.914;8.420;2023-04-01T09:46:19;1.20;;;1.10;;
15708;SDS011;7954;51.914;8.420;2023-04-01T09:51:57;0.70;;;0.70;;
15708;SDS011;7954;51.914;8.420;2023-04-01T09:54:57;0.60;;;0.60;;
15708;SDS011;7954;51.914;8.420;2023-04-01T10:00:43;0.70;;;0.70;;
15708;SDS011;7954;51.914;8.420;2023-04-01T10:12:26;0.60;;;0.60;;
15708;SDS011;7954;51.914;8.420;2023-04-01T10:18:32;0.60;;;0.60;;
15708;SDS011;7954;51.914;8.420;2023-04-01T10:33:55;2.03;;;1.90;;
15708;SDS011;7954;51.914;8.420;2023-04-01T10:42:37;0.90;;;0.90;;
15708;SDS011;7954;51.914;8.420;2023-04-01T10:48:30;2.27;;;2.07;;
15708;SDS011;7954;51.914;8.420;2023-04-01T10:51:21;1.60;;;1.50;;
15708;SDS011;7954;51.914;8.420;2023-04-01T10:54:29;0.70;;;0.70;;
15708;SDS011;7954;51.914;8.420;2023-04-01T10:57:14;0.80;;;0.80;;
15708;SDS011;7954;51.914;8.420;2023-04-01T11:06:27;3.23;;;2.77;;
15708;SDS011;7954;51.914;8.420;2023-04-01T11:09:29;1.13;;;1.07;;
15708;SDS011;7954;51.914;8.420;2023-04-01T11:12:30;1.60;;;1.50;;
15708;SDS011;7954;51.914;8.420;2023-04-01T11:15:26;1.30;;;0.93;;
15708;SDS011;7954;51.914;8.420;2023-04-01T11:18:13;0.80;;;0.80;;
15708;SDS011;7954;51.914;8.420;2023-04-01T11:24:45;0.80;;;0.80;;
15708;SDS011;7954;51.914;8.420;2023-04-01T11:27:32;1.50;;;1.10;;
15708;SDS011;7954;51.914;8.420;2023-04-01T11:30:14;0.97;;;0.90;;
15708;SDS011;7954;51.914;8.420;2023-04-01T11:32:50;0.70;;;0.70;;
15708;SDS011;7954;51.914;8.420;2023-04-01T11:38:38;0.80;;;0.80;;
15708;SDS011;7954;51.914;8.420;2023-04-01T11:41:20;0.60;;;0.60;;
15708;SDS011;7954;51.914;8.420;2023-04-01T11:44:00;0.70;;;0.70;;
15708;SDS011;7954;51.914;8.420;2023-04-01T11:46:40;0.70;;;0.70;;
15708;SDS011;7954;51.914;8.420;2023-04-01T11:49:21;1.07;;;1.00;;
15708;SDS011;7954;51.914;8.420;2023-04-01T11:52:00;0.80;;;0.80;;
15708;SDS011;7954;51.914;8.420;2023-04-01T11:55:25;0.70;;;0.70;;
15708;SDS011;7954;51.914;8.420;2023-04-01T11:58:06;0.70;;;0.70;;
15708;SDS011;7954;51.914;8.420;2023-04-01T12:00:57;0.60;;;0.60;;
15708;SDS011;7954;51.914;8.420;2023-04-01T12:03:41;0.70;;;0.70;;
15708;SDS011;7954;51.914;8.420;2023-04-01T12:06:19;0.80;;;0.80;;
15708;SDS011;7954;51.914;8.420;2023-04-01T12:08:51;0.90;;;0.90;;
15708;SDS011;7954;51.914;8.420;2023-04-01T12:11:28;0.80;;;0.80;;
15708;SDS011;7954;51.914;8.420;2023-04-01T12:14:03;0.90;;;0.90;;
15708;SDS011;7954;51.914;8.420;2023-04-01T12:16:45;0.80;;;0.80;;
15708;SDS011;7954;51.914;8.420;2023-04-01T12:19:21;1.00;;;0.90;;
15708;SDS011;7954;51.914;8.420;2023-04-01T12:22:00;0.90;;;0.90;;
15708;SDS011;7954;51.914;8.420;2023-04-01T12:24:44;0.80;;;0.80;;
15708;SDS011;7954;51.914;8.420;2023-04-01T12:27:19;1.43;;;0.83;;
15708;SDS011;7954;51.914;8.420;2023-04-01T12:29:58;1.10;;;1.00;;
15708;SDS011;7954;51.914;8.420;2023-04-01T12:32:44;1.13;;;1.10;;
15708;SDS011;7954;51.914;8.420;2023-04-01T12:35:18;2.20;;;2.00;;
15708;SDS011;7954;51.914;8.420;2023-04-01T12:43:48;1.60;;;1.50;;
15708;SDS011;7954;51.914;8.420;2023-04-01T12:46:36;1.77;;;1.67;;
15708;SDS011;7954;51.914;8.420;2023-04-01T12:49:25;1.83;;;1.73;;
15708;SDS011;7954;51.914;8.420;2023-04-01T12:52:09;1.30;;;1.20;;
15708;SDS011;7954;51.914;8.420;2023-04-01T12:57:48;1.33;;;1.23;;
15708;SDS011;7954;51.914;8.420;2023-04-01T13:03:36;1.00;;;1.00;;
15708;SDS011;7954;51.914;8.420;2023-04-01T13:06:27;1.30;;;1.20;;
15708;SDS011;7954;51.914;8.420;2023-04-01T13:09:02;2.43;;;2.23;;
15708;SDS011;7954;51.914;8.420;2023-04-01T13:11:47;1.43;;;1.33;;
15708;SDS011;7954;51.914;8.420;2023-04-01T13:14:35;1.17;;;1.17;;
15708;SDS011;7954;51.914;8.420;2023-04-01T13:19:40;1.17;;;1.17;;
15708;SDS011;7954;51.914;8.420;2023-04-01T13:22:32;1.40;;;1.30;;
15708;SDS011;7954;51.914;8.420;2023-04-01T13:25:09;1.70;;;1.60;;
15708;SDS011;7954;51.914;8.420;2023-04-01T13:27:47;2.97;;;2.67;;
15708;SDS011;7954;51.914;8.420;2023-04-01T13:30:22;2.47;;;1.93;;
15708;SDS011;7954;51.914;8.420;2023-04-01T13:32:55;1.50;;;1.40;;
15708;SDS011;7954;51.914;8.420;2023-04-01T13:35:33;1.47;;;1.37;;
15708;SDS011;7954;51.914;8.420;2023-04-01T13:38:14;1.10;;;1.10;;
15708;SDS011;7954;51.914;8.420;2023-04-01T13:40:51;1.30;;;1.20;;
15708;SDS011;7954;51.914;8.420;2023-04-01T13:43:30;1.40;;;1.30;;
15708;SDS011;7954;51.914;8.420;2023-04-01T13:46:06;1.23;;;1.23;;
15708;SDS011;7954;51.914;8.420;2023-04-01T13:48:58;1.50;;;1.40;;
15708;SDS011;7954;51.914;8.420;2023-04-01T13:55:02;1.47;;;1.37;;
15708;SDS011;7954;51.914;8.420;2023-04-01T14:00:56;1.37;;;1.27;;
15708;SDS011;7954;51.914;8.420;2023-04-01T14:06:33;1.10;;;1.10;;
15708;SDS011;7954;51.914;8.420;2023-04-01T14:09:13;1.50;;;1.40;;
15708;SDS011;7954;51.914;8.420;2023-04-01T14:11:55;1.07;;;1.07;;
15708;SDS011;7954;51.914;8.420;2023-04-01T14:14:32;1.30;;;1.20;;
15708;SDS011;7954;51.914;8.420;2023-04-01T14:17:13;1.30;;;1.20;;
15708;SDS011;7954;51.914;8.420;2023-04-01T14:19:52;1.47;;;1.37;;
15708;SDS011;7954;51.914;8.420;2023-04-01T14:22:32;2.43;;;2.23;;
15708;SDS011;7954;51.914;8.420;2023-04-01T14:28:04;1.70;;;1.60;;
15708;SDS011;7954;51.914;8.420;2023-04-01T14:30:51;1.90;;;1.80;;
15708;SDS011;7954;51.914;8.420;2023-04-01T14:33:31;1.80;;;1.70;;
15708;SDS011;7954;51.914;8.420;2023-04-01T14:36:30;1.70;;;1.60;;
15708;SDS011;7954;51.914;8.420;2023-04-01T14:39:14;1.87;;;1.70;;
15708;SDS011;7954;51.914;8.420;2023-04-01T14:42:00;1.80;;;1.30;;
15708;SDS011;7954;51.914;8.420;2023-04-01T14:44:56;1.90;;;1.30;;
15708;SDS011;7954;51.914;8.420;2023-04-01T14:47:43;1.70;;;1.43;;
15708;SDS011;7954;51.914;8.420;2023-04-01T14:50:16;1.07;;;1.07;;
15708;SDS011;7954;51.914;8.420;2023-04-01T14:52:54;1.57;;;1.47;;
15708;SDS011;7954;51.914;8.420;2023-04-01T14:55:31;1.50;;;1.40;;
15708;SDS011;7954;51.914;8.420;2023-04-01T14:58:07;1.53;;;1.43;;
15708;SDS011;7954;51.914;8.420;2023-04-01T15:00:47;1.40;;;1.30;;
15708;SDS011;7954;51.914;8.420;2023-04-01T15:03:19;1.53;;;1.43;;
15708;SDS011;7954;51.914;8.420;2023-04-01T15:05:51;1.47;;;1.13;;
15708;SDS011;7954;51.914;8.420;2023-04-01T15:08:24;1.30;;;1.20;;
15708;SDS011;7954;51.914;8.420;2023-04-01T15:13:58;1.27;;;1.23;;
15708;SDS011;7954;51.914;8.420;2023-04-01T15:16:52;1.50;;;1.40;;
15708;SDS011;7954;51.914;8.420;2023-04-01T15:19:29;2.00;;;1.80;;
15708;SDS011;7954;51.914;8.420;2023-04-01T15:24:57;1.20;;;1.10;;
15708;SDS011;7954;51.914;8.420;2023-04-01T15:27:39;1.00;;;1.00;;
15708;SDS011;7954;51.914;8.420;2023-04-01T15:30:27;1.30;;;1.27;;
15708;SDS011;7954;51.914;8.420;2023-04-01T15:33:09;0.90;;;0.90;;
15708;SDS011;7954;51.914;8.420;2023-04-01T15:35:47;1.13;;;1.03;;
15708;SDS011;7954;51.914;8.420;2023-04-01T15:41:11;1.73;;;1.63;;
15708;SDS011;7954;51.914;8.420;2023-04-01T15:43:43;2.00;;;1.90;;
15708;SDS011;7954;51.914;8.420;2023-04-01T15:46:15;2.23;;;2.00;;
15708;SDS011;7954;51.914;8.420;2023-04-01T15:48:57;2.00;;;1.53;;
15708;SDS011;7954;51.914;8.420;2023-04-01T15:51:39;1.50;;;1.40;;
15708;SDS011;7954;51.914;8.420;2023-04-01T15:54:23;1.40;;;1.30;;
15708;SDS011;7954;51.914;8.420;2023-04-01T15:57:04;1.17;;;1.17;;
15708;SDS011;7954;51.914;8.420;2023-04-01T15:59:47;1.20;;;1.10;;
15708;SDS011;7954;51.914;8.420;2023-04-01T16:02:29;1.73;;;1.20;;
15708;SDS011;7954;51.914;8.420;2023-04-01T16:05:03;1.50;;;1.30;;
15708;SDS011;7954;51.914;8.420;2023-04-01T16:07:49;1.20;;;1.20;;
15708;SDS011;7954;51.914;8.420;2023-04-01T16:10:42;1.60;;;1.50;;
15708;SDS011;7954;51.914;8.420;2023-04-01T16:13:24;1.63;;;1.40;;
15708;SDS011;7954;51.914;8.420;2023-04-01T16:16:05;2.63;;;1.50;;
15708;SDS011;7954;51.914;8.420;2023-04-01T16:21:43;1.30;;;1.20;;
15708;SDS011;7954;51.914;8.420;2023-04-01T16:24:17;1.07;;;1.07;;
15708;SDS011;7954;51.914;8.420;2023-04-01T16:26:52;1.30;;;1.20;;
15708;SDS011;7954;51.914;8.420;2023-04-01T16:29:27;1.20;;;1.10;;
15708;SDS011;7954;51.914;8.420;2023-04-01T16:32:08;1.10;;;1.00;;
15708;SDS011;7954;51.914;8.420;2023-04-01T16:35:13;1.30;;;1.20;;
15708;SDS011;7954;51.914;8.420;2023-04-01T16:37:52;1.30;;;1.20;;
15708;SDS011;7954;51.914;8.420;2023-04-01T16:40:24;1.20;;;1.10;;
15708;SDS011;7954;51.914;8.420;2023-04-01T16:43:06;1.17;;;1.17;;
15708;SDS011;7954;51.914;8.420;2023-04-01T16:45:45;1.50;;;1.40;;
15708;SDS011;7954;51.914;8.420;2023-04-01T16:48:21;1.60;;;1.50;;
15708;SDS011;7954;51.914;8.420;2023-04-01T16:50:56;1.40;;;1.27;;
15708;SDS011;7954;51.914;8.420;2023-04-01T16:53:34;2.03;;;1.40;;
15708;SDS011;7954;51.914;8.420;2023-04-01T16:56:09;1.50;;;1.40;;
15708;SDS011;7954;51.914;8.420;2023-04-01T16:58:47;1.70;;;1.60;;
15708;SDS011;7954;51.914;8.420;2023-04-01T17:01:24;1.80;;;1.70;;
15708;SDS011;7954;51.914;8.420;2023-04-01T17:03:57;1.77;;;1.47;;
15708;SDS011;7954;51.914;8.420;2023-04-01T17:06:34;1.80;;;1.70;;
15708;SDS011;7954;51.914;8.420;2023-04-01T17:09:13;1.83;;;1.73;;
15708;SDS011;7954;51.914;8.420;2023-04-01T17:11:54;1.80;;;1.70;;
15708;SDS011;7954;51.914;8.420;2023-04-01T17:14:26;1.97;;;1.80;;
15708;SDS011;7954;51.914;8.420;2023-04-01T17:17:01;2.53;;;2.00;;
15708;SDS011;7954;51.914;8.420;2023-04-01T17:19:42;1.93;;;1.80;;
15708;SDS011;7954;51.914;8.420;2023-04-01T17:22:21;1.90;;;1.80;;
15708;SDS011;7954;51.914;8.420;2023-04-01T17:25:03;1.60;;;1.50;;
15708;SDS011;7954;51.914;8.420;2023-04-01T17:27:43;1.40;;;1.30;;
15708;SDS011;7954;51.914;8.420;2023-04-01T17:30:23;1.30;;;1.20;;
15708;SDS011;7954;51.914;8.420;2023-04-01T17:33:06;1.50;;;1.40;;
15708;SDS011;7954;51.914;8.420;2023-04-01T17:35:49;1.30;;;1.20;;
15708;SDS011;7954;51.914;8.420;2023-04-01T17:38:34;0.90;;;0.90;;
15708;SDS011;7954;51.914;8.420;2023-04-01T17:41:19;0.90;;;0.90;;
15708;SDS011;7954;51.914;8.420;2023-04-01T17:43:58;4.27;;;0.80;;
15708;SDS011;7954;51.914;8.420;2023-04-01T17:46:50;0.80;;;0.80;;
15708;SDS011;7954;51.914;8.420;2023-04-01T17:49:30;0.87;;;0.87;;